createdAt,value
2022-08-24T00:00:23.795Z,102270.38
2022-08-24T00:01:28.172Z,102278.69
2022-08-24T00:02:30.190Z,102282.94
2022-08-24T00:03:34.130Z,102270.88
2022-08-24T00:04:37.115Z,102282.94
2022-08-24T00:05:38.890Z,102282.94
2022-08-24T00:06:40.895Z,102278.53
2022-08-24T00:07:42.788Z,102283.09
2022-08-24T00:08:45.278Z,102272.41
2022-08-24T00:09:50.674Z,102280.56
2022-08-24T00:10:52.667Z,102281.25
2022-08-24T00:11:54.523Z,102278.69
2022-08-24T00:12:56.374Z,102274.94
2022-08-24T00:13:58.338Z,102272.56
2022-08-24T00:15:00.906Z,102268.84
2022-08-24T00:16:03.137Z,102260.53
2022-08-24T00:17:06.143Z,102274.25
2022-08-24T00:18:08.023Z,102276.16
2022-08-24T00:19:11.183Z,102263.94
2022-08-24T00:20:13.638Z,102270.72
2022-08-24T00:21:15.898Z,102268.84
2022-08-24T00:22:17.755Z,102257.16
2022-08-24T00:23:19.703Z,102264.59
2022-08-24T00:24:21.574Z,102270.88
2022-08-24T00:25:24.227Z,102257.97
2022-08-24T00:26:28.525Z,102258.31
2022-08-24T00:27:31.320Z,102267.31
2022-08-24T00:28:34.108Z,102257.97
2022-08-24T00:29:36.114Z,102259.53
2022-08-24T00:30:37.943Z,102265.63
2022-08-24T00:31:40.547Z,102263.75
2022-08-24T00:32:43.730Z,102264.75
2022-08-24T00:33:45.866Z,102269.84
2022-08-24T00:34:58.468Z,102265.63
2022-08-24T00:36:01.635Z,102268.00
2022-08-24T00:37:03.927Z,102253.41
2022-08-24T00:38:06.033Z,102257.81
2022-08-24T00:39:08.927Z,102258.66
2022-08-24T00:40:19.555Z,102267.66
2022-08-24T00:41:22.655Z,102264.59
2022-08-24T00:42:25.443Z,102265.63
2022-08-24T00:43:28.595Z,102268.34
2022-08-24T00:44:30.500Z,102272.09
2022-08-24T00:45:37.638Z,102267.00
2022-08-24T00:46:55.812Z,102265.63
2022-08-24T00:48:05.671Z,102258.50
2022-08-24T00:49:13.732Z,102259.53
2022-08-24T00:50:40.583Z,102267.97
2022-08-24T00:52:04.649Z,102268.31
2022-08-24T00:53:16.072Z,102273.59
2022-08-24T00:54:18.882Z,102259.84
2022-08-24T00:55:26.675Z,102275.28
2022-08-24T00:56:34.580Z,102275.28
2022-08-24T00:57:42.283Z,102278.19
2022-08-24T00:58:59.235Z,102279.69
2022-08-24T01:00:09.199Z,102273.44
2022-08-24T01:01:14.421Z,102278.88
2022-08-24T01:02:23.426Z,102273.59
2022-08-24T01:03:28.067Z,102277.31
2022-08-24T01:04:53.445Z,102280.22
2022-08-24T01:05:56.822Z,102278.69
2022-08-24T01:06:59.150Z,102273.59
2022-08-24T01:08:02.755Z,102273.09
2022-08-24T01:09:05.552Z,102273.09
2022-08-24T01:10:12.040Z,102278.53
2022-08-24T01:11:18.212Z,102282.28
2022-08-24T01:12:21.241Z,102280.41
2022-08-24T01:13:25.392Z,102287.72
2022-08-24T01:14:27.463Z,102285.00
2022-08-24T01:15:31.202Z,102280.56
2022-08-24T01:16:51.421Z,102270.72
2022-08-24T01:18:12.342Z,102275.97
2022-08-24T01:19:42.683Z,102276.16
2022-08-24T01:20:48.404Z,102271.75
2022-08-24T01:22:06.034Z,102277.16
2022-08-24T01:23:38.096Z,102277.84
2022-08-24T01:24:40.867Z,102282.06
2022-08-24T01:25:44.778Z,102280.03
2022-08-24T01:26:48.847Z,102283.97
2022-08-24T01:27:53.303Z,102275.16
2022-08-24T01:29:03.664Z,102273.25
2022-08-24T01:30:10.772Z,102276.16
2022-08-24T01:31:13.749Z,102286.00
2022-08-24T01:32:23.415Z,102282.63
2022-08-24T01:33:29.330Z,102280.72
2022-08-24T01:34:31.161Z,102278.22
2022-08-24T01:35:33.639Z,102279.22
2022-08-24T01:36:40.804Z,102278.38
2022-08-24T01:37:42.711Z,102280.94
2022-08-24T01:38:47.608Z,102278.38
2022-08-24T01:39:54.078Z,102283.81
2022-08-24T01:40:59.790Z,102276.50
2022-08-24T01:42:03.095Z,102279.22
2022-08-24T01:43:07.540Z,102277.53
2022-08-24T01:44:09.911Z,102280.94
2022-08-24T01:45:12.530Z,102285.50
2022-08-24T01:46:16.592Z,102277.53
2022-08-24T01:47:18.702Z,102276.66
2022-08-24T01:48:23.087Z,102271.78
2022-08-24T01:49:30.814Z,102281.28
2022-08-24T01:50:35.070Z,102269.72
2022-08-24T01:51:37.540Z,102279.38
2022-08-24T01:53:03.834Z,102274.13
2022-08-24T01:54:06.824Z,102279.72
2022-08-24T01:55:12.610Z,102276.31
2022-08-24T01:56:16.799Z,102284.31
2022-08-24T01:57:19.496Z,102276.50
2022-08-24T01:58:21.306Z,102280.25
2022-08-24T01:59:23.821Z,102277.53
2022-08-24T02:00:26.647Z,102281.28
2022-08-24T02:01:30.672Z,102281.28
2022-08-24T02:02:32.674Z,102275.16
2022-08-24T02:03:34.963Z,102271.06
2022-08-24T02:04:37.709Z,102284.13
2022-08-24T02:05:40.628Z,102285.00
2022-08-24T02:06:45.078Z,102281.28
2022-08-24T02:07:48.867Z,102273.94
2022-08-24T02:08:50.801Z,102285.00
2022-08-24T02:09:53.293Z,102285.00
2022-08-24T02:10:56.854Z,102286.03
2022-08-24T02:11:59.530Z,102287.72
2022-08-24T02:13:04.124Z,102282.44
2022-08-24T02:14:06.192Z,102287.72
2022-08-24T02:15:09.587Z,102277.88
2022-08-24T02:16:12.114Z,102284.47
2022-08-24T02:17:14.023Z,102288.75
2022-08-24T02:18:15.936Z,102296.91
2022-08-24T02:19:18.852Z,102284.13
2022-08-24T02:20:21.768Z,102293.16
2022-08-24T02:21:24.831Z,102275.81
2022-08-24T02:22:27.161Z,102276.84
2022-08-24T02:23:29.520Z,102278.72
2022-08-24T02:24:32.020Z,102288.75
2022-08-24T02:25:33.918Z,102274.31
2022-08-24T02:26:35.984Z,102283.31
2022-08-24T02:27:38.396Z,102284.13
2022-08-24T02:28:41.198Z,102286.03
2022-08-24T02:29:44.047Z,102284.13
2022-08-24T02:30:46.052Z,102286.84
2022-08-24T02:31:48.138Z,102281.44
2022-08-24T02:32:50.030Z,102284.13
2022-08-24T02:33:51.905Z,102294.19
2022-08-24T02:34:54.824Z,102284.34
2022-08-24T02:35:57.400Z,102278.72
2022-08-24T02:37:00.007Z,102289.56
2022-08-24T02:38:03.114Z,102283.31
2022-08-24T02:39:08.268Z,102276.50
2022-08-24T02:40:12.689Z,102277.88
2022-08-24T02:41:14.845Z,102285.00
2022-08-24T02:42:16.887Z,102277.88
2022-08-24T02:43:18.720Z,102280.22
2022-08-24T02:44:21.210Z,102288.91
2022-08-24T02:45:23.966Z,102290.59
2022-08-24T02:46:28.679Z,102290.06
2022-08-24T02:47:38.239Z,102286.03
2022-08-24T02:48:41.852Z,102289.56
2022-08-24T02:49:43.643Z,102286.03
2022-08-24T02:50:49.011Z,102284.47
2022-08-24T02:51:51.040Z,102282.44
2022-08-24T02:52:55.367Z,102281.44
2022-08-24T02:53:59.919Z,102283.47
2022-08-24T02:55:01.793Z,102285.16
2022-08-24T02:56:04.482Z,102285.34
2022-08-24T02:57:07.027Z,102286.19
2022-08-24T02:58:11.250Z,102292.63
2022-08-24T02:59:14.083Z,102285.34
2022-08-24T03:00:18.985Z,102283.63
2022-08-24T03:01:30.492Z,102281.94
2022-08-24T03:02:33.323Z,102288.75
2022-08-24T03:03:36.048Z,102282.44
2022-08-24T03:04:38.924Z,102289.91
2022-08-24T03:05:40.837Z,102289.06
2022-08-24T03:06:44.718Z,102290.78
2022-08-24T03:07:47.265Z,102281.94
2022-08-24T03:08:49.354Z,102288.38
2022-08-24T03:09:58.682Z,102285.34
2022-08-24T03:11:00.629Z,102272.41
2022-08-24T03:12:02.834Z,102281.09
2022-08-24T03:13:05.042Z,102287.34
2022-08-24T03:14:08.070Z,102286.53
2022-08-24T03:15:13.570Z,102289.06
2022-08-24T03:16:16.899Z,102282.28
2022-08-24T03:17:19.372Z,102286.53
2022-08-24T03:18:24.616Z,102287.34
2022-08-24T03:19:27.694Z,102291.78
2022-08-24T03:20:30.028Z,102286.53
2022-08-24T03:21:33.475Z,102289.25
2022-08-24T03:22:35.234Z,102284.31
2022-08-24T03:23:37.403Z,102290.25
2022-08-24T03:24:39.739Z,102296.53
2022-08-24T03:25:41.756Z,102297.72
2022-08-24T03:26:44.295Z,102299.25
2022-08-24T03:27:47.418Z,102279.03
2022-08-24T03:28:49.883Z,102294.34
2022-08-24T03:29:52.147Z,102300.25
2022-08-24T03:30:54.436Z,102296.72
2022-08-24T03:31:57.487Z,102302.16
2022-08-24T03:33:01.557Z,102297.53
2022-08-24T03:34:03.929Z,102300.25
2022-08-24T03:35:06.396Z,102294.00
2022-08-24T03:36:12.437Z,102302.97
2022-08-24T03:37:16.555Z,102288.03
2022-08-24T03:38:18.442Z,102300.94
2022-08-24T03:39:20.512Z,102295.69
2022-08-24T03:40:25.697Z,102285.31
2022-08-24T03:41:30.778Z,102301.97
2022-08-24T03:42:36.144Z,102295.69
2022-08-24T03:43:51.284Z,102298.56
2022-08-24T03:44:55.277Z,102289.41
2022-08-24T03:45:57.433Z,102307.25
2022-08-24T03:47:00.002Z,102303.66
2022-08-24T03:48:03.341Z,102295.38
2022-08-24T03:49:09.294Z,102293.13
2022-08-24T03:50:12.659Z,102302.97
2022-08-24T03:51:15.835Z,102293.13
2022-08-24T03:52:17.867Z,102295.16
2022-08-24T03:53:21.039Z,102307.59
2022-08-24T03:54:23.031Z,102305.69
2022-08-24T03:55:26.690Z,102313.84
2022-08-24T03:56:29.091Z,102313.84
2022-08-24T03:57:31.542Z,102302.31
2022-08-24T03:58:33.903Z,102303.50
2022-08-24T03:59:39.396Z,102310.44
2022-08-24T04:00:49.155Z,102312.81
2022-08-24T04:01:51.290Z,102314.84
2022-08-24T04:02:53.060Z,102305.69
2022-08-24T04:03:58.214Z,102313.84
2022-08-24T04:05:07.346Z,102301.97
2022-08-24T04:06:11.750Z,102316.56
2022-08-24T04:07:14.226Z,102296.53
2022-08-24T04:08:17.902Z,102310.28
2022-08-24T04:09:19.933Z,102304.53
2022-08-24T04:10:22.608Z,102295.50
2022-08-24T04:11:27.098Z,102312.34
2022-08-24T04:12:28.943Z,102309.44
2022-08-24T04:13:32.142Z,102313.16
2022-08-24T04:14:35.383Z,102319.28
2022-08-24T04:15:45.127Z,102308.25
2022-08-24T04:16:51.625Z,102312.16
2022-08-24T04:18:05.941Z,102316.22
2022-08-24T04:19:07.812Z,102306.56
2022-08-24T04:20:10.543Z,102316.56
2022-08-24T04:21:19.459Z,102323.00
2022-08-24T04:22:21.762Z,102308.06
2022-08-24T04:23:23.584Z,102311.31
2022-08-24T04:24:32.109Z,102325.56
2022-08-24T04:25:45.070Z,102316.56
2022-08-24T04:26:47.556Z,102310.97
2022-08-24T04:27:50.146Z,102317.44
2022-08-24T04:28:52.331Z,102309.28
2022-08-24T04:29:54.802Z,102319.63
2022-08-24T04:30:58.586Z,102308.59
2022-08-24T04:32:06.440Z,102317.25
2022-08-24T04:33:10.430Z,102315.53
2022-08-24T04:34:15.433Z,102321.31
2022-08-24T04:35:17.611Z,102324.03
2022-08-24T04:36:22.010Z,102316.41
2022-08-24T04:37:24.203Z,102322.34
2022-08-24T04:38:31.895Z,102324.91
2022-08-24T04:39:59.555Z,102317.94
2022-08-24T04:41:13.671Z,102313.16
2022-08-24T04:42:17.789Z,102317.22
2022-08-24T04:43:20.189Z,102318.25
2022-08-24T04:44:22.795Z,102314.84
2022-08-24T04:45:26.065Z,102316.91
2022-08-24T04:46:28.192Z,102315.06
2022-08-24T04:47:30.715Z,102323.19
2022-08-24T04:48:35.979Z,102319.63
2022-08-24T04:49:39.158Z,102321.66
2022-08-24T04:50:42.914Z,102323.34
2022-08-24T04:51:44.847Z,102313.84
2022-08-24T04:52:47.874Z,102314.53
2022-08-24T04:53:51.747Z,102312.00
2022-08-24T04:54:53.628Z,102319.81
2022-08-24T04:55:59.463Z,102315.19
2022-08-24T04:57:01.677Z,102317.91
2022-08-24T04:58:03.454Z,102320.63
2022-08-24T04:59:06.490Z,102324.38
2022-08-24T05:00:10.981Z,102317.91
2022-08-24T05:01:19.639Z,102323.19
2022-08-24T05:02:22.975Z,102323.34
2022-08-24T05:03:27.462Z,102315.19
2022-08-24T05:04:29.377Z,102318.25
2022-08-24T05:05:34.337Z,102317.91
2022-08-24T05:06:36.185Z,102289.19
2022-08-24T05:07:38.449Z,102322.69
2022-08-24T05:08:40.602Z,102325.03
2022-08-24T05:09:42.477Z,102318.59
2022-08-24T05:10:47.478Z,102316.41
2022-08-24T05:11:50.619Z,102318.59
2022-08-24T05:12:57.356Z,102322.50
2022-08-24T05:13:59.775Z,102313.69
2022-08-24T05:15:01.779Z,102324.06
2022-08-24T05:16:10.797Z,102307.25
2022-08-24T05:17:12.806Z,102320.66
2022-08-24T05:18:16.973Z,102317.06
2022-08-24T05:19:18.952Z,102322.84
2022-08-24T05:20:21.475Z,102326.22
2022-08-24T05:21:26.193Z,102323.00
2022-08-24T05:22:30.187Z,102319.97
2022-08-24T05:23:33.119Z,102327.75
2022-08-24T05:24:34.976Z,102326.59
2022-08-24T05:25:38.882Z,102319.09
2022-08-24T05:26:40.711Z,102318.25
2022-08-24T05:27:44.221Z,102323.66
2022-08-24T05:28:46.622Z,102325.19
2022-08-24T05:29:53.559Z,102330.28
2022-08-24T05:30:55.889Z,102326.19
2022-08-24T05:31:58.960Z,102320.63
2022-08-24T05:33:04.363Z,102326.41
2022-08-24T05:34:06.333Z,102310.56
2022-08-24T05:35:09.137Z,102323.16
2022-08-24T05:36:20.861Z,102328.06
2022-08-24T05:37:22.730Z,102328.41
2022-08-24T05:38:40.388Z,102328.56
2022-08-24T05:39:42.349Z,102329.59
2022-08-24T05:40:44.179Z,102335.69
2022-08-24T05:41:47.916Z,102331.94
2022-08-24T05:42:58.196Z,102332.28
2022-08-24T05:44:01.156Z,102329.56
2022-08-24T05:45:09.125Z,102333.78
2022-08-24T05:46:11.932Z,102321.56
2022-08-24T05:47:14.307Z,102327.16
2022-08-24T05:48:16.809Z,102331.41
2022-08-24T05:49:41.317Z,102328.81
2022-08-24T05:50:43.954Z,102331.53
2022-08-24T05:51:48.404Z,102329.69
2022-08-24T05:52:52.142Z,102334.91
2022-08-24T05:53:54.691Z,102332.19
2022-08-24T05:54:59.449Z,102333.91
2022-08-24T05:56:07.971Z,102330.16
2022-08-24T05:57:11.039Z,102337.13
2022-08-24T05:58:30.909Z,102332.16
2022-08-24T05:59:37.882Z,102318.75
2022-08-24T06:00:46.655Z,102331.00
2022-08-24T06:01:48.667Z,102332.88
2022-08-24T06:02:52.993Z,102329.28
2022-08-24T06:03:56.791Z,102331.00
2022-08-24T06:04:59.087Z,102327.25
2022-08-24T06:06:02.722Z,102320.81
2022-08-24T06:07:11.658Z,102328.13
2022-08-24T06:08:17.245Z,102331.16
2022-08-24T06:09:19.612Z,102328.59
2022-08-24T06:10:37.715Z,102326.53
2022-08-24T06:11:41.542Z,102328.75
2022-08-24T06:12:43.535Z,102332.50
2022-08-24T06:13:45.407Z,102322.81
2022-08-24T06:14:52.210Z,102329.59
2022-08-24T06:16:24.176Z,102328.69
2022-08-24T06:17:27.562Z,102331.44
2022-08-24T06:18:29.490Z,102313.81
2022-08-24T06:19:33.055Z,102324.34
2022-08-24T06:20:40.331Z,102334.66
2022-08-24T06:21:44.551Z,102328.19
2022-08-24T06:22:46.482Z,102337.22
2022-08-24T06:23:49.108Z,102334.66
2022-08-24T06:25:09.364Z,102336.38
2022-08-24T06:26:31.355Z,102329.53
2022-08-24T06:27:33.967Z,102318.19
2022-08-24T06:28:36.528Z,102326.81
2022-08-24T06:29:38.358Z,102340.44
2022-08-24T06:31:05.882Z,102331.06
2022-08-24T06:32:07.770Z,102327.31
2022-08-24T06:33:10.534Z,102337.53
2022-08-24T06:34:18.604Z,102323.63
2022-08-24T06:35:20.519Z,102332.97
2022-08-24T06:36:23.049Z,102333.97
2022-08-24T06:37:29.155Z,102333.13
2022-08-24T06:38:31.400Z,102328.53
2022-08-24T06:39:33.587Z,102326.81
2022-08-24T06:40:36.984Z,102333.97
2022-08-24T06:41:39.944Z,102332.25
2022-08-24T06:42:45.863Z,102323.94
2022-08-24T06:43:56.817Z,102327.31
2022-08-24T06:45:03.382Z,102323.56
2022-08-24T06:46:07.464Z,102312.91
2022-08-24T06:47:15.106Z,102333.63
2022-08-24T06:48:17.660Z,102333.63
2022-08-24T06:49:20.393Z,102331.94
2022-08-24T06:50:24.693Z,102333.97
2022-08-24T06:51:26.798Z,102331.94
2022-08-24T06:52:28.799Z,102333.78
2022-08-24T06:53:31.058Z,102331.94
2022-08-24T06:54:34.323Z,102332.97
2022-08-24T06:55:38.166Z,102333.63
2022-08-24T06:56:39.970Z,102340.09
2022-08-24T06:57:41.843Z,102333.78
2022-08-24T06:58:44.774Z,102340.09
2022-08-24T06:59:51.430Z,102335.31
2022-08-24T07:00:56.271Z,102333.78
2022-08-24T07:01:58.748Z,102335.31
2022-08-24T07:03:02.722Z,102331.75
2022-08-24T07:04:05.459Z,102335.31
2022-08-24T07:05:30.153Z,102331.56
2022-08-24T07:06:51.254Z,102341.75
2022-08-24T07:07:54.118Z,102337.84
2022-08-24T07:08:56.960Z,102340.56
2022-08-24T07:10:00.838Z,102344.16
2022-08-24T07:11:03.440Z,102346.00
2022-08-24T07:12:06.140Z,102348.94
2022-08-24T07:13:08.299Z,102349.75
2022-08-24T07:14:10.386Z,102349.59
2022-08-24T07:15:16.450Z,102349.59
2022-08-24T07:16:22.655Z,102343.97
2022-08-24T07:17:28.039Z,102351.66
2022-08-24T07:18:30.063Z,102347.91
2022-08-24T07:19:33.017Z,102352.31
2022-08-24T07:20:38.059Z,102358.78
2022-08-24T07:21:50.631Z,102357.41
2022-08-24T07:22:52.499Z,102359.25
2022-08-24T07:23:56.673Z,102364.91
2022-08-24T07:25:00.399Z,102362.19
2022-08-24T07:26:21.414Z,102362.84
2022-08-24T07:27:24.287Z,102355.16
2022-08-24T07:28:31.768Z,102361.81
2022-08-24T07:30:09.968Z,102368.97
2022-08-24T07:30:58.207Z,102362.28
2022-08-24T07:32:01.716Z,102365.22
2022-08-24T07:33:11.802Z,102363.16
2022-08-24T07:34:14.127Z,102354.69
2022-08-24T07:35:16.079Z,102361.81
2022-08-24T07:36:22.458Z,102355.88
2022-08-24T07:37:26.835Z,102353.00
2022-08-24T07:38:32.456Z,102359.09
2022-08-24T07:39:34.257Z,102361.81
2022-08-24T07:40:55.835Z,102355.03
2022-08-24T07:42:13.042Z,102365.69
2022-08-24T07:43:17.656Z,102355.31
2022-08-24T07:44:19.670Z,102364.66
2022-08-24T07:45:22.755Z,102353.31
2022-08-24T07:46:27.074Z,102363.16
2022-08-24T07:47:54.562Z,102358.75
2022-08-24T07:49:29.469Z,102357.84
2022-08-24T07:50:37.378Z,102362.94
2022-08-24T07:51:43.755Z,102348.88
2022-08-24T07:52:48.799Z,102363.47
2022-08-24T07:53:53.934Z,102362.81
2022-08-24T07:55:01.865Z,102364.50
2022-08-24T07:56:04.443Z,102358.56
2022-08-24T07:57:08.703Z,102355.81
2022-08-24T07:58:10.924Z,102361.63
2022-08-24T07:59:13.600Z,102362.28
2022-08-24T08:00:19.879Z,102359.25
2022-08-24T08:01:27.517Z,102359.41
2022-08-24T08:02:36.486Z,102367.38
2022-08-24T08:03:38.958Z,102351.78
2022-08-24T08:04:42.159Z,102357.72
2022-08-24T08:05:44.623Z,102362.13
2022-08-24T08:06:46.632Z,102359.41
2022-08-24T08:07:52.022Z,102360.13
2022-08-24T08:08:54.658Z,102369.09
2022-08-24T08:09:56.679Z,102349.03
2022-08-24T08:10:58.913Z,102356.69
2022-08-24T08:12:00.947Z,102350.94
2022-08-24T08:13:04.640Z,102359.41
2022-08-24T08:14:07.114Z,102362.81
2022-08-24T08:15:09.987Z,102367.38
2022-08-24T08:16:15.509Z,102366.34
2022-08-24T08:17:17.458Z,102365.53
2022-08-24T08:18:20.036Z,102367.38
2022-08-24T08:19:21.961Z,102367.22
2022-08-24T08:20:24.863Z,102361.09
2022-08-24T08:21:45.267Z,102349.91
2022-08-24T08:23:05.810Z,102360.38
2022-08-24T08:24:16.368Z,102365.31
2022-08-24T08:25:20.742Z,102369.06
2022-08-24T08:26:22.598Z,102357.34
2022-08-24T08:28:04.182Z,102371.44
2022-08-24T08:29:15.647Z,102369.53
2022-08-24T08:30:18.065Z,102370.91
2022-08-24T08:31:19.892Z,102367.53
2022-08-24T08:32:22.277Z,102364.13
2022-08-24T08:34:32.383Z,102364.50
2022-08-24T08:35:36.169Z,102369.59
2022-08-24T08:36:41.522Z,102359.56
2022-08-24T08:37:44.112Z,102371.28
2022-08-24T08:38:46.518Z,102360.25
2022-08-24T08:39:49.238Z,102375.91
2022-08-24T08:41:00.396Z,102371.28
2022-08-24T08:42:15.194Z,102371.78
2022-08-24T08:43:48.854Z,102367.16
2022-08-24T08:45:13.090Z,102375.28
2022-08-24T08:46:37.435Z,102380.72
2022-08-24T08:48:17.298Z,102379.53
2022-08-24T08:49:37.082Z,102372.56
2022-08-24T08:50:51.059Z,102377.19
2022-08-24T08:52:27.286Z,102377.50
2022-08-24T08:54:01.360Z,102380.03
2022-08-24T08:55:41.168Z,102380.03
2022-08-24T08:57:02.692Z,102378.00
2022-08-24T08:58:19.219Z,102378.34
2022-08-24T08:59:58.842Z,102370.38
2022-08-24T09:01:16.081Z,102374.94
2022-08-24T09:02:29.938Z,102375.13
2022-08-24T09:04:08.815Z,102352.53
2022-08-24T09:05:41.572Z,102371.22
2022-08-24T09:07:02.017Z,102367.66
2022-08-24T09:08:39.627Z,102374.94
2022-08-24T09:10:06.042Z,102368.81
2022-08-24T09:11:34.352Z,102369.16
2022-08-24T09:13:13.925Z,102372.91
2022-08-24T09:14:25.735Z,102369.47
2022-08-24T09:15:53.366Z,102371.53
2022-08-24T09:17:38.699Z,102368.31
2022-08-24T09:19:19.304Z,102371.72
2022-08-24T09:20:43.063Z,102366.09
2022-08-24T09:22:07.172Z,102366.44
2022-08-24T09:23:30.603Z,102362.34
2022-08-24T09:24:38.280Z,102363.19
2022-08-24T09:26:24.899Z,102367.44
2022-08-24T09:27:55.951Z,102364.56
2022-08-24T09:29:04.559Z,102363.69
2022-08-24T09:30:16.925Z,102365.25
2022-08-24T09:31:27.427Z,102362.53
2022-08-24T09:32:59.188Z,102367.31
2022-08-24T09:34:26.588Z,102362.69
2022-08-24T09:36:15.847Z,102359.28
2022-08-24T09:37:23.591Z,102356.19
2022-08-24T09:38:55.628Z,102366.63
2022-08-24T09:40:00.500Z,102356.56
2022-08-24T09:41:32.139Z,102367.28
2022-08-24T09:43:11.389Z,102372.53
2022-08-24T09:44:34.562Z,102366.44
2022-08-24T09:46:00.550Z,102370.84
2022-08-24T09:47:04.895Z,102369.34
2022-08-24T09:48:28.447Z,102369.47
2022-08-24T09:49:30.343Z,102364.94
2022-08-24T09:51:03.009Z,102369.69
2022-08-24T09:52:27.644Z,102367.28
2022-08-24T09:53:50.946Z,102368.97
2022-08-24T09:55:30.998Z,102363.69
2022-08-24T09:56:59.813Z,102364.19
2022-08-24T09:58:17.528Z,102359.63
2022-08-24T09:59:22.039Z,102360.31
2022-08-24T10:00:37.978Z,102365.25
2022-08-24T10:01:49.207Z,102361.31
2022-08-24T10:02:59.859Z,102357.44
2022-08-24T10:04:21.354Z,102349.75
2022-08-24T10:05:42.090Z,102356.19
2022-08-24T10:07:02.347Z,102358.44
2022-08-24T10:08:51.973Z,102353.84
2022-08-24T10:10:10.149Z,102355.50
2022-08-24T10:11:24.099Z,102360.44
2022-08-24T10:12:44.291Z,102359.78
2022-08-24T10:13:46.073Z,102357.06
2022-08-24T10:15:33.838Z,102353.81
2022-08-24T10:17:20.006Z,102344.78
2022-08-24T10:18:34.717Z,102356.84
2022-08-24T10:19:45.528Z,102352.78
2022-08-24T10:21:01.339Z,102351.09
2022-08-24T10:22:12.614Z,102348.38
2022-08-24T10:23:39.188Z,102348.00
2022-08-24T10:24:57.106Z,102348.81
2022-08-24T10:26:45.314Z,102351.03
2022-08-24T10:28:18.864Z,102344.19
2022-08-24T10:29:45.167Z,102342.47
2022-08-24T10:31:13.162Z,102346.53
2022-08-24T10:32:45.845Z,102342.28
2022-08-24T10:34:18.562Z,102344.63
2022-08-24T10:35:43.488Z,102337.69
2022-08-24T10:37:09.635Z,102345.66
2022-08-24T10:38:47.432Z,102346.34
2022-08-24T10:40:06.273Z,102349.56
2022-08-24T10:41:20.123Z,102355.38
2022-08-24T10:42:46.637Z,102354.88
2022-08-24T10:43:55.763Z,102348.22
2022-08-24T10:45:34.924Z,102349.94
2022-08-24T10:46:43.727Z,102346.16
2022-08-24T10:47:58.326Z,102348.22
2022-08-24T10:49:22.347Z,102343.50
2022-08-24T10:50:54.024Z,102352.28
2022-08-24T10:52:33.255Z,102349.19
2022-08-24T10:53:35.724Z,102351.25
2022-08-24T10:54:38.066Z,102349.94
2022-08-24T10:55:40.319Z,102354.03
2022-08-24T10:57:20.654Z,102347.94
2022-08-24T10:58:49.035Z,102353.59
2022-08-24T10:59:53.754Z,102352.28
2022-08-24T11:00:56.458Z,102349.25
2022-08-24T11:02:12.455Z,102350.66
2022-08-24T11:03:27.756Z,102351.31
2022-08-24T11:04:33.154Z,102354.03
2022-08-24T11:05:45.167Z,102350.66
2022-08-24T11:07:17.592Z,102353.69
2022-08-24T11:08:33.421Z,102352.47
2022-08-24T11:09:56.451Z,102343.44
2022-08-24T11:11:22.571Z,102341.22
2022-08-24T11:12:42.958Z,102345.81
2022-08-24T11:14:15.651Z,102349.56
2022-08-24T11:15:17.355Z,102352.94
2022-08-24T11:16:41.701Z,102348.72
2022-08-24T11:18:00.369Z,102353.31
2022-08-24T11:19:09.878Z,102355.38
2022-08-24T11:20:39.591Z,102353.31
2022-08-24T11:21:48.986Z,102347.03
2022-08-24T11:22:59.935Z,102355.38
2022-08-24T11:24:09.096Z,102351.13
2022-08-24T11:25:19.106Z,102348.59
2022-08-24T11:26:22.367Z,102351.31
2022-08-24T11:27:35.191Z,102349.78
2022-08-24T11:28:45.723Z,102352.34
2022-08-24T11:29:51.158Z,102361.56
2022-08-24T11:30:52.948Z,102361.34
2022-08-24T11:31:54.800Z,102350.16
2022-08-24T11:33:02.663Z,102358.16
2022-08-24T11:34:11.431Z,102353.53
2022-08-24T11:35:22.327Z,102364.28
2022-08-24T11:36:28.946Z,102356.09
2022-08-24T11:37:37.362Z,102349.78
2022-08-24T11:38:39.128Z,102356.09
2022-08-24T11:39:47.734Z,102358.63
2022-08-24T11:40:52.505Z,102357.97
2022-08-24T11:42:09.342Z,102353.53
2022-08-24T11:43:20.449Z,102357.59
2022-08-24T11:44:37.364Z,102355.75
2022-08-24T11:46:09.722Z,102362.53
2022-08-24T11:47:19.678Z,102351.63
2022-08-24T11:48:29.685Z,102350.94
2022-08-24T11:49:50.078Z,102356.03
2022-08-24T11:50:58.607Z,102346.91
2022-08-24T11:52:28.629Z,102351.63
2022-08-24T11:54:05.148Z,102349.44
2022-08-24T11:55:47.394Z,102349.84
2022-08-24T11:57:04.121Z,102351.56
2022-08-24T11:58:50.132Z,102352.22
2022-08-24T12:00:15.539Z,102353.06
2022-08-24T12:01:43.554Z,102354.66
2022-08-24T12:03:37.226Z,102350.53
2022-08-24T12:04:54.325Z,102354.28
2022-08-24T12:06:03.592Z,102351.25
2022-08-24T12:07:27.934Z,102349.94
2022-08-24T12:08:35.612Z,102353.31
2022-08-24T12:09:37.322Z,102350.94
2022-08-24T12:10:54.903Z,102354.03
2022-08-24T12:12:00.357Z,102354.72
2022-08-24T12:13:23.786Z,102352.34
2022-08-24T12:14:38.929Z,102351.97
2022-08-24T12:15:52.145Z,102350.28
2022-08-24T12:17:38.470Z,102349.19
2022-08-24T12:18:51.590Z,102351.25
2022-08-24T12:19:59.682Z,102341.91
2022-08-24T12:21:01.696Z,102350.94
2022-08-24T12:22:09.863Z,102343.16
2022-08-24T12:23:24.789Z,102351.31
2022-08-24T12:24:35.609Z,102353.19
2022-08-24T12:25:56.267Z,102348.59
2022-08-24T12:27:24.547Z,102350.41
2022-08-24T12:28:34.363Z,102350.78
2022-08-24T12:30:16.450Z,102344.25
2022-08-24T12:31:21.832Z,102344.97
2022-08-24T12:33:03.575Z,102346.28
2022-08-24T12:34:21.598Z,102343.06
2022-08-24T12:35:44.601Z,102342.72
2022-08-24T12:37:02.594Z,102352.13
2022-08-24T12:38:15.086Z,102340.72
2022-08-24T12:39:22.823Z,102352.66
2022-08-24T12:40:24.766Z,102341.09
2022-08-24T12:41:34.776Z,102340.59
2022-08-24T12:42:56.165Z,102343.81
2022-08-24T12:44:09.940Z,102346.53
2022-08-24T12:45:14.409Z,102349.25
2022-08-24T12:46:22.562Z,102344.53
2022-08-24T12:47:38.414Z,102344.19
2022-08-24T12:48:49.187Z,102355.75
2022-08-24T12:49:57.614Z,102341.97
2022-08-24T12:51:11.818Z,102346.69
2022-08-24T12:52:18.382Z,102353.00
2022-08-24T12:53:50.589Z,102347.19
2022-08-24T12:55:52.343Z,102347.13
2022-08-24T12:57:12.142Z,102351.56
2022-08-24T12:58:54.328Z,102349.84
2022-08-24T13:00:03.319Z,102351.75
2022-08-24T13:01:06.990Z,102349.56
2022-08-24T13:02:11.879Z,102351.13
2022-08-24T13:03:33.203Z,102349.94
2022-08-24T13:04:49.949Z,102348.91
2022-08-24T13:05:58.399Z,102338.53
2022-08-24T13:07:06.119Z,102342.13
2022-08-24T13:08:32.059Z,102352.34
2022-08-24T13:10:12.144Z,102360.75
2022-08-24T13:11:34.632Z,102345.28
2022-08-24T13:12:41.991Z,102348.72
2022-08-24T13:14:05.194Z,102343.31
2022-08-24T13:15:30.915Z,102352.94
2022-08-24T13:16:51.529Z,102349.56